King George, VA (22485)

11:30 AM EST on February 07, 2016 (GMT -0500)
Jersey | | Change Station
CLOSE
Current Station
Personal Weather Station
Location: King George, VA
Elevation: 69 ft
Nearby Weather Stations

Elev 69 ft 38.21 °N, 77.15 °W | Updated 217 days ago

Clear
Clear
45 °F
Feels Like 41 °F
N
6
Wind Variable Wind from NNE
Gusts mph

Today
High -- | Low -- °F
--% Chance of Precip.
Yesterday
High -- | Low -- °F
Precip. -- in
Pressure 30.16 in
Visibility 10.0 miles
Clouds Clear
Windchill 41 °F
Dew Point 24 °F
Humidity 43%
Rainfall in
Snow Depth Not available.
7:08 AM 5:37 PM
Waning Crescent, 1% visible
METAR KNYG 071556Z AUTO 07009KT 10SM CLR 03/M02 A3016 RMK AO2 SLP212 T00331017
Pressure 30.16 in
Visibility 10.0 miles
Clouds Clear
Windchill 41 °F
Dew Point 24 °F
Humidity 43%
Rainfall in
Snow Depth Not available.
7:08 AM 5:37 PM
Waning Crescent, 1% visible
METAR KNYG 071556Z AUTO 07009KT 10SM CLR 03/M02 A3016 RMK AO2 SLP212 T00331017

10-Day Weather Forecast

Almanac

Astronomy

Feb. 07, 2016 Rise Set
Actual Time
Civil Twilight
Nautical Twilight
Astronomical Twilight
Moon
Length of Visible Light
Length of Day
Tomorrow will be .
, % of the Moon is Illuminated

Today's Extremes

State Highs State Lows

Community

WunderPhotos

Upload Photos

1,891,221 photos uploaded!

WunderBlog® & News

Nearby

Air Quality

  Air Quality AQ Index Pollutant
Not available.

Snow Depth

Station Depth Elevation

Earthquake Activity

City Distance Mag. Time & Date
Minimum magnitude displayed is 2.5.

Coastal Water Temperatures

Place Temperature

Stations

Nearby Weather Stations

Station Location Temp. Windchill Dew Point Humidity Wind Precip. Elev Updated Type
                   

Watches & Warnings

There are currently no watches in effect.